Time;durP1;ratioP1;P1;durP2;ratioP2;P2;SDS_P1;SDS_P2;PMS_P1;PMS_P2;Temp;Humidity;BMP_temperature;BMP_pressure;BME280_temperature;BME280_humidity;BME280_pressure;Samples;Min_cycle;Max_cycle;Signal;HPM_P1;HPM_P2
2021/05/27 00:00:48;;;;;;;2.50;1.17;;;;;;;;;;1505877;39;20030;-65
2021/05/27 00:01:49;;;;;;;3.35;1.20;;;;;;;;;;1505672;39;20309;-65
2021/05/27 00:02:50;;;;;;;2.17;1.20;;;;;;;;;;1505685;39;20022;-65
2021/05/27 00:03:51;;;;;;;3.20;1.10;;;;;;;;;;1505677;39;20393;-65
2021/05/27 00:04:53;;;;;;;3.38;1.23;;;;;;;;;;1505862;39;20035;-65
2021/05/27 00:05:55;;;;;;;2.33;1.42;;;;;;;;;;1505671;39;20166;-65
2021/05/27 00:06:56;;;;;;;1.90;1.10;;;;;;;;;;1505645;39;20019;-66
2021/05/27 00:07:58;;;;;;;1.80;1.00;;;;;;;;;;1500992;39;20027;-65
2021/05/27 00:08:58;;;;;;;2.38;1.30;;;;;;;;;;1501037;39;20353;-64
2021/05/27 00:10:00;;;;;;;2.05;1.27;;;;;;;;;;1505659;39;20022;-65
2021/05/27 00:11:01;;;;;;;2.75;1.17;;;;;;;;;;1505671;39;20478;-65
2021/05/27 00:12:03;;;;;;;2.10;1.27;;;;;;;;;;1505598;39;20035;-65
2021/05/27 00:13:04;;;;;;;2.30;1.17;;;;;;;;;;1501040;39;20026;-65
2021/05/27 00:14:05;;;;;;;2.20;1.17;;;;;;;;;;1500938;39;20031;-66
2021/05/27 00:15:08;;;;;;;1.80;1.05;;;;;;;;;;1505671;39;20043;-65
2021/05/27 00:16:09;;;;;;;2.75;1.25;;;;;;;;;;1505616;39;20038;-65
2021/05/27 00:17:19;;;;;;;2.45;1.35;;;;;;;;;;1505967;39;20027;-65
2021/05/27 00:18:20;;;;;;;2.33;1.20;;;;;;;;;;1505749;39;20033;-65
2021/05/27 00:19:21;;;;;;;2.63;1.35;;;;;;;;;;1505577;39;20038;-65
2021/05/27 00:20:22;;;;;;;2.00;1.10;;;;;;;;;;1505670;39;20110;-65
2021/05/27 00:21:25;;;;;;;1.70;1.00;;;;;;;;;;1505700;39;20450;-65
2021/05/27 00:22:26;;;;;;;2.85;1.33;;;;;;;;;;1505700;39;20023;-65
2021/05/27 00:23:27;;;;;;;2.25;1.25;;;;;;;;;;1505677;39;20026;-65
2021/05/27 00:24:36;;;;;;;2.35;1.15;;;;;;;;;;1500921;39;20487;-65
2021/05/27 00:25:37;;;;;;;2.15;1.30;;;;;;;;;;1501119;39;20082;-65
2021/05/27 00:26:40;;;;;;;2.50;1.30;;;;;;;;;;1505551;39;20023;-65
2021/05/27 00:27:42;;;;;;;2.75;1.50;;;;;;;;;;1505561;39;20121;-65
2021/05/27 00:28:43;;;;;;;2.33;1.17;;;;;;;;;;1505792;39;20030;-65
2021/05/27 00:29:44;;;;;;;3.75;1.40;;;;;;;;;;1505574;39;20026;-65
2021/05/27 00:30:45;;;;;;;2.83;1.38;;;;;;;;;;1505600;39;20037;-65
2021/05/27 00:31:46;;;;;;;2.83;1.25;;;;;;;;;;1505792;39;20036;-65
2021/05/27 00:32:49;;;;;;;1.75;1.10;;;;;;;;;;1505763;39;20057;-65
2021/05/27 00:33:50;;;;;;;2.08;1.20;;;;;;;;;;1505588;39;20026;-65
2021/05/27 00:34:51;;;;;;;2.78;1.40;;;;;;;;;;1505581;39;20026;-65
2021/05/27 00:35:52;;;;;;;2.17;1.10;;;;;;;;;;1505582;39;20022;-66
2021/05/27 00:36:54;;;;;;;1.85;1.10;;;;;;;;;;1505527;39;20507;-66
2021/05/27 00:37:55;;;;;;;2.60;0.90;;;;;;;;;;1500923;39;20027;-65
2021/05/27 00:38:56;;;;;;;1.83;1.08;;;;;;;;;;1500780;39;20023;-66
2021/05/27 00:39:57;;;;;;;1.73;1.05;;;;;;;;;;1505560;39;20130;-65
2021/05/27 00:40:58;;;;;;;2.67;1.00;;;;;;;;;;1505608;39;20381;-65
2021/05/27 00:41:59;;;;;;;2.25;1.27;;;;;;;;;;1505508;39;20484;-65
2021/05/27 00:43:00;;;;;;;4.00;1.30;;;;;;;;;;1505559;39;20106;-65
2021/05/27 00:44:01;;;;;;;2.35;1.17;;;;;;;;;;1505754;39;20033;-65
2021/05/27 00:45:05;;;;;;;2.00;1.20;;;;;;;;;;1505627;39;20038;-65
2021/05/27 00:46:06;;;;;;;2.03;1.10;;;;;;;;;;1505739;39;20030;-65
2021/05/27 00:47:09;;;;;;;2.92;1.30;;;;;;;;;;1505521;39;20367;-66
2021/05/27 00:48:56;;;;;;;2.00;1.30;;;;;;;;;;1505711;39;20033;-65
2021/05/27 00:49:32;;;;;;;2.95;1.17;;;;;;;;;;1505429;39;20056;-65
2021/05/27 00:50:33;;;;;;;3.75;1.25;;;;;;;;;;1505466;39;20390;-65
2021/05/27 00:51:34;;;;;;;2.53;1.25;;;;;;;;;;1505403;39;20125;-65
2021/05/27 00:52:36;;;;;;;2.28;0.93;;;;;;;;;;1505700;39;20027;-65
2021/05/27 00:53:37;;;;;;;2.90;1.25;;;;;;;;;;1505521;39;20405;-65
2021/05/27 00:54:39;;;;;;;2.42;1.20;;;;;;;;;;1505508;39;20022;-65
2021/05/27 00:55:39;;;;;;;2.70;1.52;;;;;;;;;;1505772;39;20026;-65
2021/05/27 00:56:42;;;;;;;1.92;1.13;;;;;;;;;;1505444;39;20027;-66
2021/05/27 00:57:43;;;;;;;2.05;1.20;;;;;;;;;;1505725;39;20042;-65
2021/05/27 00:58:44;;;;;;;1.92;1.13;;;;;;;;;;1505483;39;20358;-65
2021/05/27 00:59:45;;;;;;;2.25;1.33;;;;;;;;;;1505702;39;20027;-65
2021/05/27 01:00:47;;;;;;;2.30;1.13;;;;;;;;;;1505475;39;20114;-65
2021/05/27 01:01:51;;;;;;;1.90;1.08;;;;;;;;;;1505589;39;20034;-65
2021/05/27 01:02:53;;;;;;;2.95;1.10;;;;;;;;;;1505446;39;20119;-66
2021/05/27 01:03:54;;;;;;;1.90;1.10;;;;;;;;;;1505599;39;20168;-65
2021/05/27 01:04:55;;;;;;;1.85;1.00;;;;;;;;;;1505662;39;20089;-65
2021/05/27 01:05:56;;;;;;;2.60;1.20;;;;;;;;;;1505462;39;20301;-65
2021/05/27 01:06:57;;;;;;;1.98;1.08;;;;;;;;;;1505483;39;20022;-66
2021/05/27 01:07:59;;;;;;;2.40;1.10;;;;;;;;;;1505482;39;20382;-66
2021/05/27 01:09:03;;;;;;;1.83;1.08;;;;;;;;;;1505439;39;20512;-65
2021/05/27 01:10:04;;;;;;;2.15;1.00;;;;;;;;;;1505662;39;20039;-65
2021/05/27 01:11:06;;;;;;;2.47;1.13;;;;;;;;;;1505639;39;20030;-66
2021/05/27 01:12:07;;;;;;;2.13;1.10;;;;;;;;;;1505478;39;20070;-65
2021/05/27 01:13:09;;;;;;;1.83;1.00;;;;;;;;;;1505422;39;20130;-65
2021/05/27 01:14:11;;;;;;;1.85;1.00;;;;;;;;;;1505480;39;20078;-65
2021/05/27 01:15:28;;;;;;;2.20;1.00;;;;;;;;;;1505428;39;20031;-65
2021/05/27 01:16:30;;;;;;;2.33;1.10;;;;;;;;;;1500661;39;20042;-64
2021/05/27 01:17:30;;;;;;;1.45;0.90;;;;;;;;;;1500740;39;20083;-65
2021/05/27 01:18:32;;;;;;;2.22;0.90;;;;;;;;;;1505449;39;20022;-64
2021/05/27 01:19:33;;;;;;;1.25;0.77;;;;;;;;;;1505627;39;20034;-64
2021/05/27 01:20:36;;;;;;;1.90;1.05;;;;;;;;;;1505425;39;20115;-65
2021/05/27 01:21:43;;;;;;;1.90;1.17;;;;;;;;;;1505354;39;20378;-64
2021/05/27 01:22:45;;;;;;;2.70;1.15;;;;;;;;;;1505651;39;20147;-64
2021/05/27 01:23:46;;;;;;;2.63;0.90;;;;;;;;;;1505450;39;20079;-65
2021/05/27 01:24:48;;;;;;;1.70;1.00;;;;;;;;;;1505557;39;20027;-65
2021/05/27 01:25:51;;;;;;;1.60;1.00;;;;;;;;;;1505404;39;20026;-65
2021/05/27 01:26:52;;;;;;;2.50;1.10;;;;;;;;;;1505431;39;20031;-65
2021/05/27 01:27:55;;;;;;;1.60;1.00;;;;;;;;;;1505540;39;20023;-65
2021/05/27 01:28:56;;;;;;;1.90;1.00;;;;;;;;;;1505405;39;20034;-64
2021/05/27 01:29:57;;;;;;;2.35;1.00;;;;;;;;;;1505617;39;20070;-64
2021/05/27 01:30:59;;;;;;;1.65;1.00;;;;;;;;;;1505375;39;20027;-64
2021/05/27 01:32:00;;;;;;;1.95;1.00;;;;;;;;;;1505391;39;20034;-64
2021/05/27 01:33:01;;;;;;;2.35;1.00;;;;;;;;;;1500673;39;20027;-64
2021/05/27 01:34:07;;;;;;;1.23;0.80;;;;;;;;;;1500861;39;20030;-64
2021/05/27 01:35:14;;;;;;;2.05;1.02;;;;;;;;;;1505386;39;20030;-64
2021/05/27 01:36:16;;;;;;;2.47;1.10;;;;;;;;;;1505577;39;20030;-64
2021/05/27 01:37:17;;;;;;;2.17;0.98;;;;;;;;;;1505384;39;20030;-64
2021/05/27 01:38:20;;;;;;;2.33;0.82;;;;;;;;;;1505383;39;20401;-64
2021/05/27 01:39:21;;;;;;;1.70;1.00;;;;;;;;;;1505413;39;20035;-64
2021/05/27 01:40:24;;;;;;;1.45;0.88;;;;;;;;;;1505398;39;20045;-64
2021/05/27 01:41:25;;;;;;;1.70;1.00;;;;;;;;;;1505486;39;20080;-64
2021/05/27 01:42:26;;;;;;;1.90;1.00;;;;;;;;;;1505353;39;20066;-64
2021/05/27 01:43:28;;;;;;;1.77;0.90;;;;;;;;;;1505368;39;20385;-64
2021/05/27 01:44:29;;;;;;;2.15;1.00;;;;;;;;;;1505541;39;20148;-64
2021/05/27 01:45:30;;;;;;;1.75;0.93;;;;;;;;;;1505365;39;20022;-64
2021/05/27 01:46:32;;;;;;;1.65;1.00;;;;;;;;;;1505550;39;20031;-64
2021/05/27 01:47:32;;;;;;;2.03;1.00;;;;;;;;;;1505370;39;20038;-64
2021/05/27 01:48:34;;;;;;;1.65;0.90;;;;;;;;;;1505301;39;20027;-64
2021/05/27 01:49:39;;;;;;;2.65;1.00;;;;;;;;;;1505367;39;20022;-64
2021/05/27 01:50:41;;;;;;;1.92;1.00;;;;;;;;;;1505402;39;20408;-64
2021/05/27 01:51:48;;;;;;;2.55;1.17;;;;;;;;;;1500497;39;20119;-64
2021/05/27 01:52:51;;;;;;;1.85;1.05;;;;;;;;;;1501344;39;20085;-64
2021/05/27 01:53:52;;;;;;;1.92;0.95;;;;;;;;;;1505335;39;20038;-64
2021/05/27 01:54:53;;;;;;;1.05;0.73;;;;;;;;;;1505339;39;20031;-64
2021/05/27 01:55:54;;;;;;;2.20;1.20;;;;;;;;;;1505517;39;20038;-64
2021/05/27 01:56:55;;;;;;;2.28;0.93;;;;;;;;;;1505330;39;20270;-64
2021/05/27 01:57:58;;;;;;;2.33;1.05;;;;;;;;;;1505317;39;20031;-64
2021/05/27 01:59:04;;;;;;;1.70;0.98;;;;;;;;;;1505412;39;20374;-64
2021/05/27 02:00:06;;;;;;;1.88;0.90;;;;;;;;;;1505469;39;20026;-65
2021/05/27 02:01:07;;;;;;;2.65;0.98;;;;;;;;;;1505516;39;20031;-64
2021/05/27 02:02:08;;;;;;;3.17;1.10;;;;;;;;;;1505247;39;20038;-64
2021/05/27 02:03:10;;;;;;;1.98;1.00;;;;;;;;;;1505700;39;20038;-65
2021/05/27 02:04:11;;;;;;;2.42;0.90;;;;;;;;;;1506139;39;20026;-65
2021/05/27 02:05:13;;;;;;;2.60;0.93;;;;;;;;;;1501160;39;20031;-65
2021/05/27 02:06:14;;;;;;;1.88;0.90;;;;;;;;;;1501461;39;20034;-64
2021/05/27 02:07:15;;;;;;;2.15;1.05;;;;;;;;;;1505950;39;20027;-65
2021/05/27 02:08:20;;;;;;;1.85;1.23;;;;;;;;;;1505955;39;20022;-64
2021/05/27 02:09:21;;;;;;;1.75;0.90;;;;;;;;;;1506224;39;20035;-64
2021/05/27 02:10:28;;;;;;;3.38;1.20;;;;;;;;;;1506017;39;20030;-64
2021/05/27 02:11:30;;;;;;;1.88;0.98;;;;;;;;;;1506118;39;20034;-64
2021/05/27 02:12:31;;;;;;;2.25;1.10;;;;;;;;;;1506194;39;20022;-64
2021/05/27 02:13:32;;;;;;;1.58;0.90;;;;;;;;;;1506244;39;20035;-64
2021/05/27 02:14:34;;;;;;;2.33;1.02;;;;;;;;;;1506144;39;20034;-64
2021/05/27 02:15:36;;;;;;;2.50;1.30;;;;;;;;;;1505945;39;20027;-65
2021/05/27 02:16:39;;;;;;;2.13;1.10;;;;;;;;;;1506119;39;20281;-65
2021/05/27 02:17:40;;;;;;;2.47;1.20;;;;;;;;;;1505932;39;20498;-64
2021/05/27 02:18:41;;;;;;;2.20;1.13;;;;;;;;;;1506140;39;20107;-64
2021/05/27 02:19:42;;;;;;;2.00;1.15;;;;;;;;;;1505949;39;20126;-64
2021/05/27 02:20:43;;;;;;;2.78;1.10;;;;;;;;;;1505993;39;20311;-64
2021/05/27 02:21:45;;;;;;;2.15;1.20;;;;;;;;;;1505890;39;20037;-64
2021/05/27 02:22:46;;;;;;;2.92;1.20;;;;;;;;;;1506142;39;20030;-64
2021/05/27 02:23:52;;;;;;;2.67;1.30;;;;;;;;;;1506075;39;20027;-64
2021/05/27 02:24:53;;;;;;;2.28;1.10;;;;;;;;;;1506154;39;20027;-64
2021/05/27 02:25:54;;;;;;;1.75;1.10;;;;;;;;;;1506106;39;20023;-64
2021/05/27 02:26:55;;;;;;;2.42;1.27;;;;;;;;;;1505944;39;20297;-64
2021/05/27 02:27:56;;;;;;;1.98;1.15;;;;;;;;;;1505919;39;20030;-64
2021/05/27 02:29:00;;;;;;;1.80;1.05;;;;;;;;;;1506205;39;20034;-64
2021/05/27 02:30:01;;;;;;;1.98;0.98;;;;;;;;;;1501325;39;20031;-64
2021/05/27 02:31:02;;;;;;;2.20;1.27;;;;;;;;;;1501150;39;20027;-64
2021/05/27 02:32:04;;;;;;;1.67;1.17;;;;;;;;;;1505901;39;20344;-65
2021/05/27 02:33:05;;;;;;;2.65;1.10;;;;;;;;;;1505941;39;20023;-64
2021/05/27 02:34:06;;;;;;;3.03;1.15;;;;;;;;;;1505923;39;20030;-64
2021/05/27 02:35:08;;;;;;;1.63;1.05;;;;;;;;;;1505898;39;20042;-64
2021/05/27 02:36:09;;;;;;;1.90;0.80;;;;;;;;;;1501302;39;20034;-64
2021/05/27 02:37:11;;;;;;;2.70;1.10;;;;;;;;;;1501201;39;20105;-64
2021/05/27 02:38:12;;;;;;;2.55;1.15;;;;;;;;;;1505873;39;20023;-64
2021/05/27 02:39:15;;;;;;;2.00;1.10;;;;;;;;;;1501219;39;20027;-64
2021/05/27 02:40:16;;;;;;;2.10;1.00;;;;;;;;;;1501302;39;20414;-64
2021/05/27 02:41:17;;;;;;;1.45;1.00;;;;;;;;;;1505852;39;20038;-64
2021/05/27 02:42:18;;;;;;;2.33;1.20;;;;;;;;;;1505899;39;20038;-64
2021/05/27 02:43:19;;;;;;;2.50;0.98;;;;;;;;;;1506054;39;20382;-64
2021/05/27 02:44:21;;;;;;;2.35;1.05;;;;;;;;;;1505878;39;20125;-64
2021/05/27 02:45:22;;;;;;;1.65;1.02;;;;;;;;;;1505859;39;20037;-64
2021/05/27 02:46:23;;;;;;;2.70;1.10;;;;;;;;;;1505893;39;20301;-65
2021/05/27 02:47:25;;;;;;;1.77;1.00;;;;;;;;;;1505932;39;20033;-64
2021/05/27 02:48:26;;;;;;;2.20;1.08;;;;;;;;;;1505947;39;20027;-65
2021/05/27 02:49:27;;;;;;;1.90;1.00;;;;;;;;;;1501094;39;20030;-64
2021/05/27 02:50:28;;;;;;;2.15;1.10;;;;;;;;;;1501124;39;20023;-65
2021/05/27 02:51:29;;;;;;;2.17;1.10;;;;;;;;;;1506043;39;20026;-64
2021/05/27 02:52:30;;;;;;;2.63;1.20;;;;;;;;;;1506023;39;20030;-64
2021/05/27 02:53:31;;;;;;;1.80;1.10;;;;;;;;;;1505876;39;20409;-65
2021/05/27 02:54:33;;;;;;;1.98;1.02;;;;;;;;;;1505859;39;20147;-64
2021/05/27 02:55:34;;;;;;;1.77;1.10;;;;;;;;;;1505893;39;20078;-64
2021/05/27 02:56:35;;;;;;;1.73;1.00;;;;;;;;;;1505816;39;20066;-64
2021/05/27 02:57:37;;;;;;;1.98;1.17;;;;;;;;;;1505993;39;20086;-64
2021/05/27 02:58:39;;;;;;;1.92;1.10;;;;;;;;;;1505822;39;20030;-64
2021/05/27 02:59:40;;;;;;;1.63;1.00;;;;;;;;;;1506068;39;20038;-64
2021/05/27 03:00:41;;;;;;;2.10;1.17;;;;;;;;;;1505996;39;20053;-64
2021/05/27 03:01:43;;;;;;;2.17;1.15;;;;;;;;;;1506017;39;20327;-65
2021/05/27 03:02:43;;;;;;;2.97;1.10;;;;;;;;;;1505996;39;20032;-64
2021/05/27 03:03:45;;;;;;;2.53;1.30;;;;;;;;;;1505875;39;20378;-64
2021/05/27 03:04:46;;;;;;;1.67;1.10;;;;;;;;;;1505970;39;20029;-64
2021/05/27 03:05:48;;;;;;;2.20;1.20;;;;;;;;;;1506023;39;20074;-64
2021/05/27 03:06:49;;;;;;;2.80;1.40;;;;;;;;;;1505995;39;20058;-64
2021/05/27 03:07:50;;;;;;;2.20;1.17;;;;;;;;;;1505989;39;20110;-64
2021/05/27 03:08:52;;;;;;;3.20;1.30;;;;;;;;;;1506058;39;20038;-64
2021/05/27 03:09:53;;;;;;;3.22;1.20;;;;;;;;;;1505962;39;20034;-64
2021/05/27 03:10:55;;;;;;;1.90;1.13;;;;;;;;;;1505809;39;20041;-63
2021/05/27 03:11:57;;;;;;;2.22;0.90;;;;;;;;;;1505894;39;20031;-64
2021/05/27 03:12:58;;;;;;;2.42;1.10;;;;;;;;;;1505989;39;20106;-64
2021/05/27 03:13:59;;;;;;;1.55;0.90;;;;;;;;;;1505962;39;20031;-64
2021/05/27 03:15:00;;;;;;;2.10;1.10;;;;;;;;;;1505819;39;20022;-64
2021/05/27 03:16:01;;;;;;;2.72;0.95;;;;;;;;;;1505777;39;20404;-64
2021/05/27 03:17:03;;;;;;;2.35;1.15;;;;;;;;;;1505964;39;20037;-64
2021/05/27 03:18:05;;;;;;;2.70;1.17;;;;;;;;;;1505773;39;20022;-64
2021/05/27 03:19:07;;;;;;;2.20;0.98;;;;;;;;;;1505960;39;20103;-64
2021/05/27 03:20:09;;;;;;;1.70;1.00;;;;;;;;;;1505792;39;20031;-64
2021/05/27 03:21:10;;;;;;;3.15;1.20;;;;;;;;;;1505780;39;20336;-64
2021/05/27 03:22:11;;;;;;;1.60;1.10;;;;;;;;;;1505698;39;20030;-64
2021/05/27 03:23:13;;;;;;;2.35;1.17;;;;;;;;;;1505763;39;20023;-64
2021/05/27 03:24:14;;;;;;;1.90;1.10;;;;;;;;;;1505933;39;20083;-65
2021/05/27 03:25:16;;;;;;;2.00;1.20;;;;;;;;;;1505767;39;20031;-64
2021/05/27 03:26:17;;;;;;;2.22;1.25;;;;;;;;;;1505748;39;20027;-65
2021/05/27 03:27:19;;;;;;;2.85;1.20;;;;;;;;;;1505982;39;20103;-64
2021/05/27 03:28:19;;;;;;;2.25;1.15;;;;;;;;;;1505752;39;20057;-64
2021/05/27 03:29:21;;;;;;;1.88;1.00;;;;;;;;;;1505852;39;20067;-64
2021/05/27 03:30:22;;;;;;;1.85;1.17;;;;;;;;;;1505908;39;20042;-65
2021/05/27 03:31:24;;;;;;;1.88;1.00;;;;;;;;;;1505663;39;20031;-63
2021/05/27 03:32:25;;;;;;;1.65;1.10;;;;;;;;;;1505754;39;20481;-64
2021/05/27 03:33:26;;;;;;;3.20;1.00;;;;;;;;;;1501067;39;20092;-64
2021/05/27 03:34:27;;;;;;;2.65;1.20;;;;;;;;;;1501099;39;20294;-64
2021/05/27 03:35:28;;;;;;;2.47;1.13;;;;;;;;;;1506049;39;20030;-64
2021/05/27 03:36:29;;;;;;;1.92;1.20;;;;;;;;;;1505742;39;20092;-64
2021/05/27 03:37:30;;;;;;;2.30;1.08;;;;;;;;;;1505941;39;20039;-64
2021/05/27 03:38:31;;;;;;;2.85;1.30;;;;;;;;;;1505875;39;20022;-64
2021/05/27 03:39:32;;;;;;;1.67;1.00;;;;;;;;;;1505943;39;20031;-64
2021/05/27 03:40:34;;;;;;;2.30;1.40;;;;;;;;;;1505937;39;20049;-64
2021/05/27 03:41:35;;;;;;;2.25;1.30;;;;;;;;;;1505830;39;20035;-64
2021/05/27 03:42:36;;;;;;;1.77;1.13;;;;;;;;;;1505897;39;20030;-64
2021/05/27 03:43:37;;;;;;;1.73;1.10;;;;;;;;;;1505762;39;20039;-65
2021/05/27 03:44:38;;;;;;;2.60;1.25;;;;;;;;;;1505979;39;20022;-64
2021/05/27 03:45:40;;;;;;;2.63;1.20;;;;;;;;;;1505775;39;20038;-64
2021/05/27 03:46:41;;;;;;;2.35;1.10;;;;;;;;;;1505677;39;20022;-64
2021/05/27 03:47:43;;;;;;;2.28;1.25;;;;;;;;;;1500916;39;20031;-64
2021/05/27 03:48:43;;;;;;;2.45;1.23;;;;;;;;;;1501244;39;20038;-64
2021/05/27 03:49:44;;;;;;;1.88;1.13;;;;;;;;;;1505894;39;20026;-64
2021/05/27 03:50:45;;;;;;;2.55;1.20;;;;;;;;;;1505954;39;20263;-64
2021/05/27 03:51:46;;;;;;;1.90;1.10;;;;;;;;;;1505663;39;20037;-64
2021/05/27 03:52:48;;;;;;;1.98;1.00;;;;;;;;;;1505951;39;20022;-64
2021/05/27 03:53:49;;;;;;;2.40;1.20;;;;;;;;;;1505897;39;20023;-64
2021/05/27 03:54:50;;;;;;;2.88;1.58;;;;;;;;;;1505851;39;20018;-64
2021/05/27 03:55:52;;;;;;;2.75;1.30;;;;;;;;;;1505701;39;20026;-64
2021/05/27 03:56:53;;;;;;;1.88;1.20;;;;;;;;;;1500817;39;20030;-64
2021/05/27 03:57:54;;;;;;;2.00;1.10;;;;;;;;;;1500905;39;20026;-64
2021/05/27 04:01:36;;;;;;;2.22;1.35;;;;;;;;;;1505643;39;20037;-64
2021/05/27 04:02:42;;;;;;;3.45;1.40;;;;;;;;;;1505965;39;20405;-64
2021/05/27 04:07:41;;;;;;;3.55;1.58;;;;;;;;;;1505721;39;20305;-64
2021/05/27 04:08:42;;;;;;;2.92;1.38;;;;;;;;;;1505674;39;20029;-64
2021/05/27 04:09:43;;;;;;;3.47;1.63;;;;;;;;;;1505650;39;20401;-64
2021/05/27 04:10:45;;;;;;;4.05;1.38;;;;;;;;;;1505812;39;20083;-64
2021/05/27 04:11:47;;;;;;;2.88;1.40;;;;;;;;;;1505637;39;20026;-64
2021/05/27 04:12:48;;;;;;;2.88;1.30;;;;;;;;;;1505624;39;20022;-64
2021/05/27 04:14:04;;;;;;;2.28;1.40;;;;;;;;;;1506175;39;20027;-58
2021/05/27 04:15:25;;;;;;;2.50;1.35;;;;;;;;;;1505722;39;20281;-58
2021/05/27 04:16:26;;;;;;;2.30;1.38;;;;;;;;;;1505783;39;20058;-58
2021/05/27 04:17:30;;;;;;;2.20;1.10;;;;;;;;;;1505839;39;20066;-59
2021/05/27 04:18:31;;;;;;;3.70;1.33;;;;;;;;;;1505831;39;20071;-59
2021/05/27 04:19:32;;;;;;;2.95;1.48;;;;;;;;;;1505802;39;20030;-58
2021/05/27 04:20:35;;;;;;;3.15;1.30;;;;;;;;;;1505828;39;20022;-59
2021/05/27 04:21:37;;;;;;;2.28;1.30;;;;;;;;;;1505593;39;20026;-60
2021/05/27 04:22:39;;;;;;;2.30;1.08;;;;;;;;;;1505652;39;20462;-59
2021/05/27 04:23:40;;;;;;;3.22;1.35;;;;;;;;;;1505924;39;20026;-59
2021/05/27 04:24:41;;;;;;;2.72;1.20;;;;;;;;;;1505630;39;20022;-59
2021/05/27 04:25:43;;;;;;;3.53;1.13;;;;;;;;;;1505370;39;20414;-59
2021/05/27 04:26:44;;;;;;;1.80;1.20;;;;;;;;;;1505563;39;20030;-60
2021/05/27 04:27:47;;;;;;;1.90;0.90;;;;;;;;;;1505574;39;20041;-58
2021/05/27 04:28:49;;;;;;;2.22;1.38;;;;;;;;;;1505606;39;20386;-57
2021/05/27 04:29:52;;;;;;;1.88;1.13;;;;;;;;;;1505837;39;20143;-59
2021/05/27 04:31:09;;;;;;;2.22;1.30;;;;;;;;;;1505816;39;20022;-59
2021/05/27 04:32:53;;;;;;;3.08;1.23;;;;;;;;;;1505619;39;20039;-58
2021/05/27 04:33:32;;;;;;;2.13;1.10;;;;;;;;;;1505530;39;20309;-58
2021/05/27 04:34:33;;;;;;;1.90;1.17;;;;;;;;;;1505883;39;20035;-59
2021/05/27 04:35:37;;;;;;;2.10;1.42;;;;;;;;;;1505783;39;20027;-59
2021/05/27 04:36:38;;;;;;;2.22;1.35;;;;;;;;;;1505740;39;20033;-58
2021/05/27 04:37:38;;;;;;;2.67;1.25;;;;;;;;;;1500838;39;20086;-59
2021/05/27 04:38:40;;;;;;;3.13;1.50;;;;;;;;;;1501039;39;20038;-59
2021/05/27 04:39:41;;;;;;;2.30;1.33;;;;;;;;;;1505611;39;20023;-59
2021/05/27 04:40:44;;;;;;;1.70;1.20;;;;;;;;;;1505786;39;20026;-59
2021/05/27 04:41:45;;;;;;;2.42;1.27;;;;;;;;;;1505699;39;20034;-59
2021/05/27 04:42:47;;;;;;;2.00;1.20;;;;;;;;;;1505552;39;20030;-59
2021/05/27 04:43:53;;;;;;;2.53;1.10;;;;;;;;;;1505736;39;20034;-59
2021/05/27 04:44:54;;;;;;;2.05;1.20;;;;;;;;;;1500896;39;20031;-58
2021/05/27 04:45:55;;;;;;;2.90;1.20;;;;;;;;;;1500816;39;20049;-59
2021/05/27 04:46:56;;;;;;;2.10;1.25;;;;;;;;;;1505560;39;20290;-58
2021/05/27 04:47:58;;;;;;;2.10;1.20;;;;;;;;;;1505580;39;20079;-59
2021/05/27 04:48:59;;;;;;;2.10;1.40;;;;;;;;;;1505585;39;20394;-59
2021/05/27 04:50:00;;;;;;;1.75;1.08;;;;;;;;;;1505548;39;20037;-59
2021/05/27 04:51:02;;;;;;;2.03;1.38;;;;;;;;;;1505574;39;20140;-59
2021/05/27 04:52:03;;;;;;;2.50;1.40;;;;;;;;;;1505544;39;20037;-58
2021/05/27 04:53:05;;;;;;;2.35;1.25;;;;;;;;;;1505660;39;20270;-59
2021/05/27 04:54:06;;;;;;;1.77;1.20;;;;;;;;;;1505515;39;20033;-59
2021/05/27 04:55:10;;;;;;;2.13;1.42;;;;;;;;;;1505577;39;20027;-59
2021/05/27 04:56:11;;;;;;;3.53;1.38;;;;;;;;;;1505830;39;20030;-59
2021/05/27 04:57:12;;;;;;;2.42;1.30;;;;;;;;;;1505494;39;20394;-59
2021/05/27 04:58:14;;;;;;;1.55;1.10;;;;;;;;;;1505738;39;20039;-59
2021/05/27 04:59:15;;;;;;;2.38;1.27;;;;;;;;;;1505721;39;20026;-59
2021/05/27 05:00:19;;;;;;;2.17;1.33;;;;;;;;;;1505499;39;20406;-59
2021/05/27 05:01:20;;;;;;;2.70;1.50;;;;;;;;;;1505740;39;20023;-59
2021/05/27 05:02:21;;;;;;;2.33;1.25;;;;;;;;;;1505454;39;20038;-59
2021/05/27 05:03:22;;;;;;;2.10;1.30;;;;;;;;;;1505656;39;20023;-60
2021/05/27 05:04:23;;;;;;;2.53;1.30;;;;;;;;;;1505493;39;20305;-60
2021/05/27 05:05:26;;;;;;;1.90;1.20;;;;;;;;;;1505678;39;20027;-60
2021/05/27 05:06:27;;;;;;;2.30;1.30;;;;;;;;;;1505698;39;20022;-59
2021/05/27 05:07:28;;;;;;;2.85;1.30;;;;;;;;;;1505722;39;20297;-59
2021/05/27 05:08:29;;;;;;;2.60;1.20;;;;;;;;;;1505679;39;20043;-60
2021/05/27 05:09:30;;;;;;;2.03;1.17;;;;;;;;;;1505542;39;20023;-60
2021/05/27 05:10:32;;;;;;;2.33;1.27;;;;;;;;;;1500704;39;20023;-60
2021/05/27 05:11:33;;;;;;;3.00;1.55;;;;;;;;;;1500965;39;20034;-60
2021/05/27 05:12:44;;;;;;;5.10;1.30;;;;;;;;;;1505717;39;20027;-60
2021/05/27 05:13:46;;;;;;;1.70;1.13;;;;;;;;;;1505512;39;20485;-59
2021/05/27 05:14:47;;;;;;;2.80;1.30;;;;;;;;;;1505426;39;20305;-60
2021/05/27 05:15:49;;;;;;;3.00;1.27;;;;;;;;;;1505404;39;20379;-61
2021/05/27 05:16:50;;;;;;;2.25;1.35;;;;;;;;;;1505446;39;20031;-59
2021/05/27 05:17:53;;;;;;;4.15;1.30;;;;;;;;;;1505425;39;20033;-60
2021/05/27 05:18:55;;;;;;;2.10;1.20;;;;;;;;;;1505437;39;20393;-60
2021/05/27 05:19:56;;;;;;;1.83;1.17;;;;;;;;;;1505571;39;20026;-60
2021/05/27 05:20:57;;;;;;;2.25;1.30;;;;;;;;;;1505677;39;20038;-58
2021/05/27 05:21:58;;;;;;;2.67;1.10;;;;;;;;;;1505479;39;20038;-59
2021/05/27 05:23:00;;;;;;;2.10;1.27;;;;;;;;;;1505607;39;20026;-60
2021/05/27 05:24:01;;;;;;;2.75;1.25;;;;;;;;;;1505534;39;20400;-60
2021/05/27 05:25:03;;;;;;;1.98;1.30;;;;;;;;;;1505593;39;20022;-59
2021/05/27 05:26:04;;;;;;;2.30;1.40;;;;;;;;;;1505502;39;20301;-59
2021/05/27 05:27:06;;;;;;;1.83;1.13;;;;;;;;;;1505398;39;20026;-60
2021/05/27 05:28:08;;;;;;;1.75;1.02;;;;;;;;;;1505652;39;20030;-60
2021/05/27 05:29:10;;;;;;;2.08;1.20;;;;;;;;;;1505440;39;20027;-59
2021/05/27 05:30:13;;;;;;;3.78;1.30;;;;;;;;;;1505385;39;20118;-59
2021/05/27 05:31:14;;;;;;;3.03;1.33;;;;;;;;;;1505382;39;20370;-59
2021/05/27 05:32:15;;;;;;;1.60;1.10;;;;;;;;;;1505366;39;20038;-59
2021/05/27 05:33:16;;;;;;;1.85;1.08;;;;;;;;;;1505580;39;20144;-60
2021/05/27 05:34:17;;;;;;;1.98;1.00;;;;;;;;;;1505392;39;20301;-59
2021/05/27 05:35:19;;;;;;;1.65;1.10;;;;;;;;;;1505388;39;20122;-58
2021/05/27 05:36:21;;;;;;;1.85;1.17;;;;;;;;;;1505422;39;20322;-60
2021/05/27 05:37:21;;;;;;;2.00;1.15;;;;;;;;;;1505344;39;20110;-59
2021/05/27 05:38:23;;;;;;;3.22;1.27;;;;;;;;;;1506063;39;20114;-59
2021/05/27 05:39:24;;;;;;;2.10;1.20;;;;;;;;;;1506056;39;20026;-59
2021/05/27 05:40:27;;;;;;;2.50;1.30;;;;;;;;;;1506068;39;20035;-60
2021/05/27 05:41:28;;;;;;;2.20;1.10;;;;;;;;;;1505995;39;20289;-61
2021/05/27 05:42:29;;;;;;;1.92;1.02;;;;;;;;;;1506074;39;20031;-59
2021/05/27 05:43:30;;;;;;;1.98;1.13;;;;;;;;;;1506267;39;20030;-59
2021/05/27 05:44:32;;;;;;;1.80;1.08;;;;;;;;;;1506158;39;20381;-60
2021/05/27 05:45:34;;;;;;;2.97;1.17;;;;;;;;;;1506315;39;20034;-60
2021/05/27 05:46:35;;;;;;;2.08;1.00;;;;;;;;;;1506104;39;20033;-59
2021/05/27 05:47:36;;;;;;;2.80;1.40;;;;;;;;;;1506240;39;20106;-60
2021/05/27 05:48:38;;;;;;;2.75;1.25;;;;;;;;;;1506015;39;20362;-60
2021/05/27 05:49:38;;;;;;;2.30;1.20;;;;;;;;;;1506137;39;20297;-60
2021/05/27 05:50:46;;;;;;;1.77;1.17;;;;;;;;;;1505999;39;20034;-60
2021/05/27 05:51:47;;;;;;;2.13;1.20;;;;;;;;;;1506190;39;20114;-58
2021/05/27 05:52:48;;;;;;;2.38;1.10;;;;;;;;;;1506180;39;20027;-60
2021/05/27 05:53:49;;;;;;;1.80;1.10;;;;;;;;;;1506009;39;20033;-60
2021/05/27 05:54:51;;;;;;;2.47;1.10;;;;;;;;;;1506010;39;20066;-60
2021/05/27 05:55:53;;;;;;;2.35;1.30;;;;;;;;;;1506087;39;20045;-59
2021/05/27 05:56:55;;;;;;;2.05;1.17;;;;;;;;;;1505922;39;20438;-59
2021/05/27 05:57:55;;;;;;;3.10;1.27;;;;;;;;;;1506014;39;20031;-59
2021/05/27 05:58:57;;;;;;;2.53;1.33;;;;;;;;;;1506200;39;20026;-59
2021/05/27 05:59:58;;;;;;;2.88;1.30;;;;;;;;;;1506142;39;20026;-59
2021/05/27 06:01:00;;;;;;;4.70;1.30;;;;;;;;;;1506004;39;20033;-60
2021/05/27 06:02:03;;;;;;;2.50;1.13;;;;;;;;;;1506134;39;20046;-59
2021/05/27 06:03:06;;;;;;;2.15;1.27;;;;;;;;;;1506217;39;20111;-60
2021/05/27 06:04:07;;;;;;;2.10;1.20;;;;;;;;;;1506008;39;20035;-59
2021/05/27 06:05:08;;;;;;;2.08;1.08;;;;;;;;;;1506256;39;20103;-59
2021/05/27 06:06:12;;;;;;;2.22;1.30;;;;;;;;;;1506253;39;20078;-58
2021/05/27 06:07:12;;;;;;;2.00;1.20;;;;;;;;;;1506197;39;20034;-60
2021/05/27 06:08:14;;;;;;;2.67;1.33;;;;;;;;;;1506247;39;20382;-59
2021/05/27 06:09:14;;;;;;;2.13;1.25;;;;;;;;;;1506035;39;20030;-59
2021/05/27 06:10:16;;;;;;;2.88;1.38;;;;;;;;;;1505960;39;20026;-60
2021/05/27 06:11:18;;;;;;;2.28;1.10;;;;;;;;;;1506200;39;20058;-59
2021/05/27 06:12:19;;;;;;;2.22;1.20;;;;;;;;;;1505930;39;20041;-59
2021/05/27 06:13:21;;;;;;;2.70;1.20;;;;;;;;;;1506133;39;20023;-60
2021/05/27 06:14:22;;;;;;;2.03;1.30;;;;;;;;;;1506070;39;20306;-59
2021/05/27 06:15:25;;;;;;;1.83;1.15;;;;;;;;;;1505991;39;20030;-58
2021/05/27 06:16:26;;;;;;;2.30;1.40;;;;;;;;;;1506117;39;20047;-59
2021/05/27 06:17:27;;;;;;;1.60;1.10;;;;;;;;;;1501124;39;20073;-60
2021/05/27 06:18:28;;;;;;;2.28;1.30;;;;;;;;;;1501372;39;20034;-60